createdAt,value
2017-08-23T00:00:23.398Z,80.50
2017-08-23T00:02:50.996Z,80.40
2017-08-23T00:05:18.720Z,80.60
2017-08-23T00:07:46.386Z,81.00
2017-08-23T00:10:14.233Z,81.10
2017-08-23T00:12:41.827Z,81.30
2017-08-23T00:15:09.336Z,81.20
2017-08-23T00:17:36.827Z,81.30
2017-08-23T00:20:04.602Z,81.30
2017-08-23T00:22:32.150Z,81.20
2017-08-23T00:25:28.752Z,81.30
2017-08-23T00:27:56.268Z,81.60
2017-08-23T00:30:23.860Z,81.60
2017-08-23T00:32:51.334Z,81.40
2017-08-23T00:35:19.201Z,81.70
2017-08-23T00:37:46.917Z,82.00
2017-08-23T00:40:14.471Z,82.10
2017-08-23T00:42:42.030Z,82.00
2017-08-23T00:45:09.687Z,82.10
2017-08-23T00:47:37.399Z,82.00
2017-08-23T00:50:05.972Z,81.70
2017-08-23T00:52:33.559Z,81.60
2017-08-23T00:55:01.202Z,81.80
2017-08-23T00:57:28.775Z,81.70
2017-08-23T00:59:56.445Z,81.80
2017-08-23T01:02:23.930Z,82.00
2017-08-23T01:04:51.403Z,82.00
2017-08-23T01:07:18.905Z,81.90
2017-08-23T01:09:46.555Z,82.10
2017-08-23T01:12:14.156Z,82.30
2017-08-23T01:14:43.344Z,82.20
2017-08-23T01:17:10.970Z,82.60
2017-08-23T01:19:38.700Z,82.80
2017-08-23T01:22:06.350Z,82.90
2017-08-23T01:24:33.871Z,83.10
2017-08-23T01:27:01.476Z,83.30
2017-08-23T01:29:29.219Z,83.40
2017-08-23T01:31:56.720Z,83.10
2017-08-23T01:34:24.408Z,82.90
2017-08-23T01:36:52.180Z,82.80
2017-08-23T01:39:19.856Z,83.00
2017-08-23T01:41:47.502Z,82.80
2017-08-23T01:44:15.134Z,82.60
2017-08-23T01:46:42.629Z,82.80
2017-08-23T01:49:10.362Z,82.90
2017-08-23T01:51:37.885Z,82.80
2017-08-23T01:54:05.397Z,83.00
2017-08-23T01:56:33.044Z,82.90
2017-08-23T01:59:00.613Z,82.90
2017-08-23T02:01:28.076Z,83.40
2017-08-23T02:03:55.649Z,82.50
2017-08-23T02:06:23.262Z,82.70
2017-08-23T02:08:50.818Z,82.90
2017-08-23T02:11:18.566Z,82.90
2017-08-23T02:13:46.062Z,82.80
2017-08-23T02:16:14.671Z,82.80
2017-08-23T02:18:42.132Z,82.80
2017-08-23T02:21:10.523Z,82.80
2017-08-23T02:23:38.175Z,82.80
2017-08-23T02:26:06.462Z,82.90
2017-08-23T02:28:34.725Z,82.90
2017-08-23T02:31:02.562Z,82.90
2017-08-23T02:33:30.044Z,83.00
2017-08-23T02:35:57.728Z,83.30
2017-08-23T02:38:25.279Z,83.30
2017-08-23T02:40:52.728Z,83.40
2017-08-23T02:43:20.437Z,83.80
2017-08-23T02:45:48.127Z,84.10
2017-08-23T02:48:15.830Z,84.10
2017-08-23T02:50:43.699Z,84.20
2017-08-23T02:53:12.011Z,84.40
2017-08-23T02:55:39.630Z,84.40
2017-08-23T02:58:07.296Z,84.40
2017-08-23T03:00:34.948Z,84.20
2017-08-23T03:03:03.345Z,84.10
2017-08-23T03:05:31.607Z,84.20
2017-08-23T03:07:59.881Z,84.10
2017-08-23T03:10:28.413Z,84.10
2017-08-23T03:12:56.116Z,84.00
2017-08-23T03:15:23.687Z,84.10
2017-08-23T03:17:51.368Z,84.20
2017-08-23T03:20:19.115Z,84.40
2017-08-23T03:22:46.616Z,84.50
2017-08-23T03:25:14.146Z,84.40
2017-08-23T03:27:41.868Z,84.50
2017-08-23T03:30:09.681Z,84.40
2017-08-23T03:32:37.574Z,84.60
2017-08-23T03:35:05.183Z,84.50
2017-08-23T03:37:32.742Z,84.60
2017-08-23T03:40:00.265Z,84.70
2017-08-23T03:42:27.832Z,84.80
2017-08-23T03:44:56.247Z,85.10
2017-08-23T03:47:23.810Z,85.00
2017-08-23T03:49:52.172Z,85.20
2017-08-23T03:52:19.711Z,85.10
2017-08-23T03:54:47.203Z,85.20
2017-08-23T03:57:15.466Z,85.10
2017-08-23T03:59:42.930Z,85.10
2017-08-23T04:02:10.487Z,85.30
2017-08-23T04:04:38.015Z,85.40
2017-08-23T04:07:05.512Z,85.40
2017-08-23T04:09:33.126Z,85.50
2017-08-23T04:12:00.899Z,85.40
2017-08-23T04:14:28.396Z,85.60
2017-08-23T04:16:55.951Z,85.50
2017-08-23T04:19:24.375Z,85.70
2017-08-23T04:21:51.858Z,85.90
2017-08-23T04:24:19.535Z,86.00
2017-08-23T04:26:47.082Z,85.90
2017-08-23T04:29:14.546Z,85.90
2017-08-23T04:31:42.031Z,86.00
2017-08-23T04:34:09.617Z,85.90
2017-08-23T04:36:37.127Z,85.90
2017-08-23T04:39:04.615Z,86.00
2017-08-23T04:41:32.149Z,85.70
2017-08-23T04:43:59.630Z,85.70
2017-08-23T04:46:27.110Z,85.60
2017-08-23T04:48:54.629Z,85.50
2017-08-23T04:51:22.159Z,85.50
2017-08-23T04:53:49.738Z,85.40
2017-08-23T04:56:17.272Z,85.50
2017-08-23T04:58:44.724Z,85.40
2017-08-23T05:01:12.224Z,85.30
2017-08-23T05:03:39.753Z,85.20
2017-08-23T05:06:07.346Z,85.30
2017-08-23T05:08:34.853Z,85.10
2017-08-23T05:11:03.321Z,84.80
2017-08-23T05:13:30.792Z,84.80
2017-08-23T05:15:58.367Z,84.80
2017-08-23T05:18:26.448Z,84.90
2017-08-23T05:20:54.073Z,85.00
2017-08-23T05:23:21.548Z,84.60
2017-08-23T05:25:49.256Z,84.70
2017-08-23T05:28:16.754Z,84.50
2017-08-23T05:30:44.234Z,84.60
2017-08-23T05:33:11.904Z,84.80
2017-08-23T05:35:39.489Z,84.50
2017-08-23T05:38:07.119Z,84.40
2017-08-23T05:40:34.957Z,84.10
2017-08-23T05:43:02.636Z,83.60
2017-08-23T05:45:30.103Z,83.50
2017-08-23T05:47:57.751Z,83.30
2017-08-23T05:50:25.562Z,82.90
2017-08-23T05:52:53.123Z,83.10
2017-08-23T05:55:20.640Z,82.60
2017-08-23T05:57:48.212Z,82.30
2017-08-23T06:00:15.808Z,81.50
2017-08-23T06:02:43.624Z,80.90
2017-08-23T06:05:11.183Z,80.40
2017-08-23T06:07:38.661Z,80.10
2017-08-23T06:10:06.194Z,79.70
2017-08-23T06:12:33.851Z,78.80
2017-08-23T06:15:01.429Z,78.20
2017-08-23T06:17:29.075Z,77.50
2017-08-23T06:19:56.871Z,77.20
2017-08-23T06:22:24.682Z,77.10
2017-08-23T06:24:52.564Z,76.80
2017-08-23T06:27:20.095Z,76.60
2017-08-23T06:29:47.600Z,76.60
2017-08-23T06:32:15.123Z,76.50
2017-08-23T06:34:42.729Z,75.80
2017-08-23T06:37:10.426Z,76.10
2017-08-23T06:39:37.932Z,76.00
2017-08-23T06:42:05.498Z,75.80
2017-08-23T06:44:33.148Z,75.50
2017-08-23T06:47:00.677Z,75.70
2017-08-23T06:49:28.296Z,75.20
2017-08-23T06:51:55.933Z,75.20
2017-08-23T06:54:23.506Z,75.10
2017-08-23T06:56:51.167Z,74.90
2017-08-23T06:59:18.631Z,74.40
2017-08-23T07:01:46.274Z,71.40
2017-08-23T07:04:14.080Z,67.10
2017-08-23T07:06:41.699Z,63.20
2017-08-23T07:09:09.189Z,60.10
2017-08-23T07:11:36.655Z,57.20
2017-08-23T07:14:04.292Z,55.30
2017-08-23T07:16:31.819Z,52.70
2017-08-23T07:18:59.314Z,51.10
2017-08-23T07:21:26.853Z,50.30
2017-08-23T07:23:54.653Z,49.70
2017-08-23T07:26:22.211Z,48.00
2017-08-23T07:28:49.731Z,45.50
2017-08-23T07:31:17.294Z,44.00
2017-08-23T07:33:44.959Z,42.90
2017-08-23T07:36:12.696Z,42.00
2017-08-23T07:38:40.190Z,41.50
2017-08-23T07:41:07.754Z,41.30
2017-08-23T07:43:36.125Z,40.00
2017-08-23T07:46:03.795Z,39.90
2017-08-23T07:48:31.337Z,39.80
2017-08-23T07:50:58.919Z,40.00
2017-08-23T07:53:26.579Z,40.20
2017-08-23T07:55:54.124Z,40.10
2017-08-23T07:58:21.910Z,40.40
2017-08-23T08:00:49.432Z,39.70
2017-08-23T08:03:16.991Z,39.50
2017-08-23T08:05:45.227Z,38.80
2017-08-23T08:08:14.252Z,38.90
2017-08-23T08:10:41.955Z,38.90
2017-08-23T08:13:10.319Z,38.40
2017-08-23T08:15:37.956Z,38.30
2017-08-23T08:18:05.415Z,38.30
2017-08-23T08:20:33.110Z,38.10
2017-08-23T08:23:00.628Z,38.50
2017-08-23T08:25:28.430Z,37.90
2017-08-23T08:27:55.986Z,37.00
2017-08-23T08:30:23.522Z,37.00
2017-08-23T08:32:51.019Z,36.90
2017-08-23T08:35:18.589Z,37.20
2017-08-23T08:37:46.241Z,37.50
2017-08-23T08:40:13.788Z,37.00
2017-08-23T08:42:41.215Z,36.60
2017-08-23T08:45:08.982Z,37.10
2017-08-23T08:47:37.434Z,37.80
2017-08-23T08:50:05.040Z,37.70
2017-08-23T08:52:32.543Z,36.50
2017-08-23T08:55:00.946Z,35.90
2017-08-23T08:57:28.444Z,35.20
2017-08-23T08:59:56.126Z,35.40
2017-08-23T09:02:23.850Z,35.60
2017-08-23T09:04:51.444Z,35.90
2017-08-23T09:07:19.207Z,35.70
2017-08-23T09:09:46.822Z,36.20
2017-08-23T09:12:14.327Z,34.50
2017-08-23T09:14:41.959Z,33.60
2017-08-23T09:17:09.671Z,33.60
2017-08-23T09:19:37.164Z,33.60
2017-08-23T09:22:04.796Z,33.80
2017-08-23T09:24:32.649Z,33.60
2017-08-23T09:27:00.279Z,33.00
2017-08-23T09:29:27.759Z,33.00
2017-08-23T09:31:55.327Z,34.30
2017-08-23T09:34:22.886Z,36.10
2017-08-23T09:36:50.559Z,36.30
2017-08-23T09:39:18.874Z,33.80
2017-08-23T09:41:46.372Z,33.70
2017-08-23T09:44:14.036Z,34.40
2017-08-23T09:46:41.567Z,33.90
2017-08-23T09:49:09.429Z,33.80
2017-08-23T09:51:37.134Z,33.20
2017-08-23T09:54:05.461Z,33.40
2017-08-23T09:56:33.440Z,33.40
2017-08-23T09:59:00.951Z,32.90
2017-08-23T10:01:29.589Z,31.20
2017-08-23T10:03:57.086Z,31.10
2017-08-23T10:06:25.671Z,31.10
2017-08-23T10:08:53.282Z,31.10
2017-08-23T10:11:21.112Z,29.70
2017-08-23T10:13:48.656Z,31.00
2017-08-23T10:16:16.264Z,32.20
2017-08-23T10:18:44.811Z,31.80
2017-08-23T10:21:12.556Z,31.80
2017-08-23T10:23:40.936Z,32.90
2017-08-23T10:26:08.820Z,32.90
2017-08-23T10:28:37.118Z,33.20
2017-08-23T10:31:04.982Z,33.20
2017-08-23T10:33:32.720Z,33.10
2017-08-23T10:36:00.491Z,31.80
2017-08-23T10:38:28.735Z,31.20
2017-08-23T10:40:57.454Z,31.10
2017-08-23T10:43:25.803Z,31.70
2017-08-23T10:45:53.611Z,31.70
2017-08-23T10:48:21.299Z,32.30
2017-08-23T10:50:49.106Z,32.20
2017-08-23T10:53:16.728Z,30.50
2017-08-23T10:55:44.528Z,32.40
2017-08-23T10:58:12.341Z,30.40
2017-08-23T11:00:39.947Z,31.20
2017-08-23T11:03:07.548Z,31.50
2017-08-23T11:05:35.214Z,32.20
2017-08-23T11:08:02.964Z,33.30
2017-08-23T11:10:30.606Z,40.30
2017-08-23T11:12:58.686Z,35.90
2017-08-23T11:15:26.486Z,36.80
2017-08-23T11:17:54.952Z,39.00
2017-08-23T11:20:23.014Z,39.00
2017-08-23T11:22:50.495Z,39.60
2017-08-23T11:25:18.219Z,39.00
2017-08-23T11:27:45.943Z,39.80
2017-08-23T11:30:14.393Z,40.10
2017-08-23T11:32:42.735Z,41.30
2017-08-23T11:35:10.398Z,41.30
2017-08-23T11:37:38.188Z,40.80
2017-08-23T11:40:05.845Z,40.60
2017-08-23T11:42:33.468Z,41.30
2017-08-23T11:45:01.024Z,42.20
2017-08-23T11:47:28.684Z,42.30
2017-08-23T11:49:56.295Z,42.70
2017-08-23T11:52:23.879Z,42.80
2017-08-23T11:54:52.131Z,43.20
2017-08-23T11:57:19.895Z,43.20
2017-08-23T11:59:48.222Z,44.20
2017-08-23T12:02:16.541Z,44.20
2017-08-23T12:04:44.938Z,43.60
2017-08-23T12:07:12.576Z,43.60
2017-08-23T12:09:40.173Z,43.60
2017-08-23T12:12:08.336Z,43.10
2017-08-23T12:14:36.752Z,43.40
2017-08-23T12:17:04.793Z,43.40
2017-08-23T12:19:32.463Z,44.00
2017-08-23T12:22:00.143Z,43.10
2017-08-23T12:24:27.729Z,43.00
2017-08-23T12:26:58.378Z,42.60
2017-08-23T12:29:26.839Z,42.50
2017-08-23T12:31:54.325Z,42.60
2017-08-23T12:34:21.946Z,42.90
2017-08-23T12:36:49.447Z,42.70
2017-08-23T12:39:17.759Z,43.30
2017-08-23T12:41:45.667Z,43.30
2017-08-23T12:44:13.153Z,42.70
2017-08-23T12:46:40.603Z,42.70
2017-08-23T12:49:08.343Z,43.40
2017-08-23T12:51:36.247Z,42.60
2017-08-23T12:54:03.831Z,42.40
2017-08-23T12:56:31.555Z,41.60
2017-08-23T12:58:59.341Z,40.20
2017-08-23T13:01:27.686Z,41.10
2017-08-23T13:03:55.381Z,41.10
2017-08-23T13:06:23.399Z,41.40
2017-08-23T13:08:51.234Z,41.60
2017-08-23T13:11:18.854Z,41.70
2017-08-23T13:13:47.056Z,41.90
2017-08-23T13:16:14.623Z,41.60
2017-08-23T13:18:42.900Z,40.60
2017-08-23T13:21:11.175Z,40.80
2017-08-23T13:23:38.767Z,40.80
2017-08-23T13:26:06.304Z,40.60
2017-08-23T13:28:33.961Z,40.40
2017-08-23T13:31:01.456Z,41.60
2017-08-23T13:33:29.229Z,41.40
2017-08-23T13:35:57.078Z,41.60
2017-08-23T13:38:24.604Z,41.80
2017-08-23T13:40:52.942Z,42.30
2017-08-23T13:43:20.585Z,42.30
2017-08-23T13:45:48.195Z,42.70
2017-08-23T13:48:15.749Z,42.50
2017-08-23T13:50:43.229Z,42.70
2017-08-23T13:53:11.478Z,42.20
2017-08-23T13:55:39.039Z,42.20
2017-08-23T13:58:06.545Z,42.50
2017-08-23T14:00:34.176Z,41.90
2017-08-23T14:03:01.947Z,41.40
2017-08-23T14:05:30.335Z,41.20
2017-08-23T14:07:58.593Z,41.10
2017-08-23T14:10:26.207Z,41.10
2017-08-23T14:12:53.996Z,41.70
2017-08-23T14:15:22.603Z,40.70
2017-08-23T14:17:50.127Z,40.60
2017-08-23T14:20:17.628Z,41.00
2017-08-23T14:22:45.168Z,41.40
2017-08-23T14:25:12.719Z,41.70
2017-08-23T14:27:40.403Z,41.90
2017-08-23T14:30:08.045Z,41.90
2017-08-23T14:32:35.593Z,42.40
2017-08-23T14:35:03.419Z,41.20
2017-08-23T14:37:31.033Z,41.30
2017-08-23T14:39:58.896Z,41.00
2017-08-23T14:42:26.560Z,41.90
2017-08-23T14:44:54.137Z,41.40
2017-08-23T14:47:22.470Z,40.50
2017-08-23T14:49:50.041Z,40.50
2017-08-23T14:52:17.507Z,39.80
2017-08-23T14:54:45.074Z,39.70
2017-08-23T14:57:12.550Z,40.50
2017-08-23T14:59:40.165Z,41.00
2017-08-23T15:02:07.767Z,40.80
2017-08-23T15:04:35.251Z,41.30
2017-08-23T15:07:02.815Z,39.80
2017-08-23T15:09:30.555Z,40.70
2017-08-23T15:11:58.174Z,41.10
2017-08-23T15:14:25.751Z,41.20
2017-08-23T15:16:53.612Z,41.80
2017-08-23T15:19:21.917Z,41.10
2017-08-23T15:21:49.491Z,41.50
2017-08-23T15:24:17.155Z,41.90
2017-08-23T15:26:45.036Z,42.10
2017-08-23T15:29:12.667Z,42.00
2017-08-23T15:31:40.307Z,42.70
2017-08-23T15:34:08.111Z,43.00
2017-08-23T15:36:36.607Z,42.00
2017-08-23T15:39:05.085Z,42.20
2017-08-23T15:41:32.607Z,42.20
2017-08-23T15:44:00.162Z,40.60
2017-08-23T15:46:27.753Z,40.70
2017-08-23T15:48:56.115Z,40.00
2017-08-23T15:51:24.017Z,40.10
2017-08-23T15:53:51.560Z,41.70
2017-08-23T15:56:19.274Z,41.00
2017-08-23T15:58:46.868Z,41.40
2017-08-23T16:01:15.355Z,41.80
2017-08-23T16:03:43.024Z,41.80
2017-08-23T16:06:10.566Z,41.10
2017-08-23T16:08:38.222Z,41.30
2017-08-23T16:11:05.968Z,41.40
2017-08-23T16:13:47.818Z,42.90
2017-08-23T16:16:15.440Z,42.90
2017-08-23T16:18:42.984Z,42.90
2017-08-23T16:21:10.786Z,42.80
2017-08-23T16:23:38.351Z,42.80
2017-08-23T16:26:05.971Z,42.70
2017-08-23T16:28:33.551Z,43.90
2017-08-23T16:31:01.132Z,43.40
2017-08-23T16:33:28.908Z,42.80
2017-08-23T16:35:56.679Z,42.40
2017-08-23T16:38:25.013Z,42.80
2017-08-23T16:40:53.421Z,41.70
2017-08-23T16:43:22.012Z,42.40
2017-08-23T16:45:50.343Z,42.30
2017-08-23T16:48:17.960Z,42.70
2017-08-23T16:50:45.612Z,41.90
2017-08-23T16:53:13.170Z,42.60
2017-08-23T16:55:40.703Z,42.10
2017-08-23T16:58:08.244Z,42.20
2017-08-23T17:00:36.061Z,42.30
2017-08-23T17:03:03.721Z,42.50
2017-08-23T17:05:31.689Z,42.60
2017-08-23T17:07:59.254Z,42.40
2017-08-23T17:10:26.951Z,42.50
2017-08-23T17:12:54.751Z,42.40
2017-08-23T17:15:23.027Z,44.20
2017-08-23T17:17:50.498Z,44.00
2017-08-23T17:20:18.188Z,43.40
2017-08-23T17:22:45.733Z,44.20
2017-08-23T17:25:13.400Z,43.50
2017-08-23T17:27:41.010Z,44.40
2017-08-23T17:30:08.604Z,44.70
2017-08-23T17:32:36.465Z,45.20
2017-08-23T17:35:04.039Z,45.20
2017-08-23T17:37:32.526Z,45.50
2017-08-23T17:40:00.031Z,45.50
2017-08-23T17:42:27.715Z,45.70
2017-08-23T17:44:56.129Z,45.90
2017-08-23T17:47:23.639Z,45.90
2017-08-23T17:49:51.230Z,46.00
2017-08-23T17:52:18.953Z,45.90
2017-08-23T17:54:46.438Z,45.90
2017-08-23T17:57:14.136Z,46.40
2017-08-23T17:59:41.799Z,46.80
2017-08-23T18:02:09.867Z,46.80
2017-08-23T18:04:38.199Z,47.60
2017-08-23T18:07:05.965Z,47.60
2017-08-23T18:09:33.467Z,47.80
2017-08-23T18:12:01.232Z,48.10
2017-08-23T18:14:28.844Z,48.70
2017-08-23T18:16:56.750Z,48.70
2017-08-23T18:19:24.269Z,49.00
2017-08-23T18:21:51.777Z,48.90
2017-08-23T18:24:19.451Z,49.40
2017-08-23T18:26:47.271Z,50.10
2017-08-23T18:29:15.186Z,50.70
2017-08-23T18:31:43.300Z,50.90
2017-08-23T19:55:35.026Z,60.60
2017-08-23T19:58:02.538Z,62.30
2017-08-23T20:00:30.008Z,61.60
2017-08-23T20:02:57.497Z,61.70
2017-08-23T20:05:25.026Z,61.30
2017-08-23T20:07:52.821Z,60.60
2017-08-23T20:10:21.209Z,62.40
2017-08-23T20:12:48.872Z,62.50
2017-08-23T20:15:17.150Z,63.10
2017-08-23T20:17:44.780Z,63.20
2017-08-23T20:20:12.263Z,63.30
2017-08-23T20:22:39.777Z,63.10
2017-08-23T20:25:07.274Z,63.10
2017-08-23T20:27:34.919Z,63.60
2017-08-23T20:30:02.450Z,62.40
2017-08-23T20:32:29.974Z,61.70
2017-08-23T20:34:57.417Z,63.40
2017-08-23T20:37:25.664Z,63.40
2017-08-23T20:39:53.228Z,63.40
2017-08-23T20:42:21.033Z,62.10
2017-08-23T20:44:48.479Z,63.40
2017-08-23T20:47:16.767Z,62.80
2017-08-23T20:49:44.295Z,62.80
2017-08-23T20:52:11.938Z,61.40
2017-08-23T20:54:39.478Z,61.10
2017-08-23T20:57:06.956Z,61.80
2017-08-23T20:59:34.518Z,60.30
2017-08-23T21:02:02.125Z,60.40
2017-08-23T21:04:30.363Z,60.30
2017-08-23T21:06:57.952Z,60.30
2017-08-23T21:09:26.275Z,60.10
2017-08-23T21:11:53.784Z,60.10
2017-08-23T21:14:21.300Z,59.70
2017-08-23T21:16:48.815Z,59.70
2017-08-23T21:19:16.326Z,59.60
2017-08-23T21:21:43.804Z,59.50
2017-08-23T21:24:12.141Z,59.80
2017-08-23T21:26:39.652Z,59.30
2017-08-23T21:29:07.260Z,59.10
2017-08-23T21:31:34.766Z,59.20
2017-08-23T21:34:02.239Z,59.30
2017-08-23T21:36:30.467Z,59.10
2017-08-23T21:38:57.948Z,59.10
2017-08-23T21:41:25.388Z,59.40
2017-08-23T21:43:52.932Z,59.10
2017-08-23T21:46:20.500Z,59.30
2017-08-23T21:48:48.001Z,59.30
2017-08-23T21:51:15.628Z,59.30
2017-08-23T21:53:43.229Z,58.80
2017-08-23T21:56:10.853Z,59.40
2017-08-23T21:58:38.505Z,59.20
2017-08-23T22:01:06.525Z,59.30
2017-08-23T22:03:34.075Z,59.30
2017-08-23T22:06:01.561Z,59.50
2017-08-23T22:08:29.122Z,59.50
2017-08-23T22:10:56.607Z,59.40
2017-08-23T22:13:24.261Z,59.40
2017-08-23T22:15:51.802Z,59.40
2017-08-23T22:18:20.046Z,59.50
2017-08-23T22:20:47.742Z,59.40
2017-08-23T22:23:15.423Z,59.40
2017-08-23T22:25:43.026Z,59.60
2017-08-23T22:28:10.795Z,60.00
2017-08-23T22:30:38.471Z,60.10
2017-08-23T22:33:06.955Z,60.40
2017-08-23T22:35:34.631Z,60.20
2017-08-23T22:38:02.520Z,60.40
2017-08-23T22:40:30.831Z,60.80
2017-08-23T22:42:58.712Z,60.70
2017-08-23T22:45:27.160Z,61.20
2017-08-23T22:47:54.758Z,61.10
2017-08-23T22:50:22.503Z,61.00
2017-08-23T22:52:50.100Z,61.20
2017-08-23T22:55:18.608Z,61.40
2017-08-23T22:57:46.796Z,61.50
2017-08-23T23:00:14.389Z,61.50
2017-08-23T23:02:41.864Z,61.50
2017-08-23T23:05:10.280Z,61.70
2017-08-23T23:07:38.016Z,61.70
2017-08-23T23:10:05.490Z,61.90
2017-08-23T23:12:32.982Z,61.80
2017-08-23T23:15:00.488Z,61.90
2017-08-23T23:17:28.493Z,62.70
2017-08-23T23:19:56.090Z,62.00
2017-08-23T23:22:23.731Z,62.00
2017-08-23T23:24:51.196Z,62.20
2017-08-23T23:27:18.703Z,62.20
2017-08-23T23:29:46.245Z,62.40
2017-08-23T23:32:14.557Z,62.50
2017-08-23T23:34:42.046Z,62.50
2017-08-23T23:37:09.656Z,62.70
2017-08-23T23:39:37.172Z,62.70
2017-08-23T23:42:04.744Z,62.90
2017-08-23T23:44:32.304Z,63.20
2017-08-23T23:46:59.931Z,63.40
2017-08-23T23:49:27.555Z,63.50
2017-08-23T23:51:55.143Z,63.80
2017-08-23T23:54:22.662Z,64.10
2017-08-23T23:56:50.154Z,64.60
2017-08-23T23:59:17.686Z,65.00
